Okayama, Japan

9:18 AM JST on February 06, 2016 (GMT +0900)
Okayama | | Change Station
CLOSE
Current Station
Airport
Location: Okayama,
Elevation: 794 ft
Nearby Weather Stations

Elev 794 ft 34.76 °N, 133.86 °E | Updated 18 minutes ago

Partly Cloudy
Partly Cloudy
36 °F
Feels Like 33 °F
N
4
Wind Variable Wind from West

Today
High -- | Low -- °F
--% Chance of Precip.
Yesterday
High -- | Low -- °F
Precip. -- in
Pressure 30.01 in
Visibility 6.2 miles
Clouds Few 2000 ft
Windchill 33 °F
Dew Point 27 °F
Humidity 70%
Rainfall 0.00 in
Snow Depth Not available.
6:59 AM 5:37 PM
Waning Crescent, 8% visible
METAR RJOB 060000Z 28003KT 9999 FEW020 SCT/// 02/M03 Q1016
Pressure 30.01 in
Visibility 6.2 miles
Clouds Few 2000 ft
Windchill 33 °F
Dew Point 27 °F
Humidity 70%
Rainfall 0.00 in
Snow Depth Not available.
6:59 AM 5:37 PM
Waning Crescent, 8% visible
METAR RJOB 060000Z 28003KT 9999 FEW020 SCT/// 02/M03 Q1016

10-Day Weather Forecast

No radar image for this location.
×

Almanac

Astronomy

Feb. 06, 2016 Rise Set
Actual Time
Civil Twilight
Nautical Twilight
Astronomical Twilight
Moon
Length of Visible Light
Length of Day
Tomorrow will be .
, % of the Moon is Illuminated

Today's Extremes

Country Highs Country Lows

Community

WunderPhotos

Upload Photos

1,890,893 photos uploaded!

WunderBlog® & News

Nearby

Air Quality

  Air Quality AQ Index Pollutant
Not available.

Snow Depth

Station Depth Elevation

Earthquake Activity

City Distance Mag. Time & Date
Minimum magnitude displayed is 2.5.

Coastal Water Temperatures

Place Temperature

Stations

Nearby Weather Stations

Station Location Temp. Windchill Dew Point Humidity Wind Precip. Elev Updated Type